Time;durP1;ratioP1;P1;durP2;ratioP2;P2;SDS_P1;SDS_P2;PMS_P1;PMS_P2;Temp;Humidity;BMP_temperature;BMP_pressure;BME280_temperature;BME280_humidity;BME280_pressure;Samples;Min_cycle;Max_cycle;Signal;HPM_P1;HPM_P2
2022/10/24 18:36:40;;;;;;;24.20;12.50;;;;;;;10.88;84.17;101187.76;95459;1307;5004668;-77
2022/10/24 18:39:45;;;;;;;18.30;9.70;;;;;;;10.89;83.12;101185.61;102487;1302;599578;-68
2022/10/24 18:42:34;;;;;;;19.50;10.30;;;;;;;10.80;84.11;101187.64;105311;1270;62856;-69
2022/10/24 18:45:05;;;;;;;17.70;10.50;;;;;;;10.75;84.30;101187.96;105379;1278;58300;-68
2022/10/24 18:47:34;;;;;;;15.90;9.80;;;;;;;10.70;84.69;101185.48;105385;1265;72400;-70
2022/10/24 18:50:04;;;;;;;17.00;9.60;;;;;;;10.65;85.69;101186.17;105317;1263;62005;-69
2022/10/24 18:52:57;;;;;;;18.80;10.40;;;;;;;10.65;85.53;101186.00;105076;1268;326582;-71
2022/10/24 18:55:29;;;;;;;15.40;7.70;;;;;;;10.64;84.00;101189.56;105364;1267;72888;-69
2022/10/24 18:57:59;;;;;;;12.70;7.60;;;;;;;10.66;83.26;101187.69;105280;1270;59014;-70
2022/10/24 19:00:31;;;;;;;14.10;7.50;;;;;;;10.63;84.60;101187.70;105656;1257;61250;-71
2022/10/24 19:03:32;;;;;;;11.60;7.70;;;;;;;10.58;85.01;101185.89;105671;1264;60848;-70
2022/10/24 19:07:51;;;;;;;12.10;7.80;;;;;;;10.48;85.80;101177.20;102615;1300;600348;-68
2022/10/24 19:10:26;;;;;;;15.30;7.70;;;;;;;10.49;83.78;101184.77;105185;1275;58488;-69
2022/10/24 19:12:56;;;;;;;13.20;7.90;;;;;;;10.47;84.61;101185.25;105256;1274;57450;-69
2022/10/24 19:15:26;;;;;;;15.00;7.80;;;;;;;10.46;85.46;101191.41;105248;1267;71868;-68
2022/10/24 19:17:55;;;;;;;13.00;8.00;;;;;;;10.45;84.19;101190.42;105176;1270;61165;-70
2022/10/24 19:20:25;;;;;;;12.80;8.00;;;;;;;10.45;85.78;101189.95;104883;1273;334337;-69
2022/10/24 19:22:54;;;;;;;13.90;8.10;;;;;;;10.45;86.43;101193.96;105407;1275;62445;-68
2022/10/24 19:25:23;;;;;;;14.20;9.20;;;;;;;10.43;86.43;101191.63;105336;1270;62337;-69
2022/10/24 19:27:51;;;;;;;16.80;9.10;;;;;;;10.42;86.86;101191.87;105363;1263;61441;-69
2022/10/24 19:30:25;;;;;;;15.00;9.20;;;;;;;10.40;86.68;101194.75;105372;1267;61619;-69
2022/10/24 19:32:57;;;;;;;16.40;9.50;;;;;;;10.40;86.85;101194.63;105490;1275;60975;-69
2022/10/24 19:35:28;;;;;;;12.20;8.00;;;;;;;10.39;87.15;101194.98;105523;1275;69554;-69
2022/10/24 19:38:00;;;;;;;18.90;9.50;;;;;;;10.38;87.29;101194.00;105407;1266;74277;-69
2022/10/24 19:40:29;;;;;;;16.90;8.50;;;;;;;10.38;88.23;101190.86;105386;1273;57493;-68
2022/10/24 19:42:58;;;;;;;17.50;9.50;;;;;;;10.39;87.98;101185.64;105469;1262;59105;-69
2022/10/24 19:45:26;;;;;;;14.40;8.50;;;;;;;10.40;87.67;101190.60;105144;1278;71332;-69
2022/10/24 19:47:56;;;;;;;14.30;9.50;;;;;;;10.39;87.26;101192.05;105295;1271;62802;-67
2022/10/24 19:50:24;;;;;;;16.40;8.70;;;;;;;10.40;87.29;101193.04;105437;1266;70369;-66
2022/10/24 19:52:53;;;;;;;16.70;9.20;;;;;;;10.41;87.64;101194.17;105287;1264;63293;-68
2022/10/24 19:55:22;;;;;;;15.80;9.50;;;;;;;10.43;86.56;101196.51;105373;1270;58983;-67
2022/10/24 19:57:50;;;;;;;18.20;9.50;;;;;;;10.44;86.56;101196.45;105439;1268;61184;-66
2022/10/24 20:00:20;;;;;;;15.90;8.80;;;;;;;10.44;86.87;101199.91;105445;1275;72634;-68
2022/10/24 20:02:48;;;;;;;13.20;8.10;;;;;;;10.42;86.81;101200.71;105348;1273;72846;-70
2022/10/24 20:05:17;;;;;;;16.30;7.90;;;;;;;10.41;86.58;101199.06;105229;1273;60559;-68
2022/10/24 20:07:46;;;;;;;19.00;9.70;;;;;;;10.42;86.69;101194.62;105216;1271;73422;-69
2022/10/24 20:10:14;;;;;;;14.30;8.80;;;;;;;10.44;86.87;101192.80;105528;1259;64282;-71
2022/10/24 20:12:51;;;;;;;16.80;8.20;;;;;;;10.42;87.20;101196.91;105702;1267;61122;-69
2022/10/24 20:15:27;;;;;;;14.20;8.90;;;;;;;10.39;87.31;101197.47;105437;1267;72812;-72
2022/10/24 20:18:02;;;;;;;15.90;8.30;;;;;;;10.37;87.75;101198.27;105616;1264;71746;-70
2022/10/24 20:20:34;;;;;;;13.30;8.00;;;;;;;10.38;86.93;101193.84;105567;1260;70713;-68
2022/10/24 20:23:03;;;;;;;13.20;7.90;;;;;;;10.38;86.24;101192.61;105470;1270;63523;-69
2022/10/24 20:25:35;;;;;;;14.90;9.00;;;;;;;10.39;86.04;101192.77;105501;1263;59136;-70
2022/10/24 20:28:03;;;;;;;19.30;9.00;;;;;;;10.35;87.67;101193.66;105399;1261;61032;-71
2022/10/24 20:30:43;;;;;;;16.80;10.40;;;;;;;10.35;86.96;101191.21;105509;1272;62650;-69
2022/10/24 20:33:13;;;;;;;20.70;10.80;;;;;;;10.37;87.15;101193.02;105484;1267;71542;-70
2022/10/24 20:35:43;;;;;;;17.40;9.40;;;;;;;10.44;87.30;101190.65;105516;1272;59123;-69
2022/10/24 20:38:15;;;;;;;17.00;9.70;;;;;;;10.44;87.18;101194.83;105445;1270;64118;-67
2022/10/24 20:40:46;;;;;;;20.80;10.90;;;;;;;10.47;86.78;101195.84;105595;1266;59161;-71
2022/10/24 20:43:16;;;;;;;19.30;11.60;;;;;;;10.48;87.13;101192.65;105507;1261;61425;-71
2022/10/24 20:45:45;;;;;;;19.40;11.60;;;;;;;10.52;87.40;101193.96;105416;1269;62489;-68
2022/10/24 20:48:13;;;;;;;16.10;9.50;;;;;;;10.55;86.43;101193.08;105410;1270;71721;-68
2022/10/24 20:50:42;;;;;;;17.40;10.60;;;;;;;10.58;86.28;101189.90;105466;1270;59846;-69
2022/10/24 20:53:11;;;;;;;17.50;10.60;;;;;;;10.61;85.97;101186.08;105518;1270;74213;-68
2022/10/24 20:55:39;;;;;;;17.60;10.40;;;;;;;10.60;86.88;101185.12;105368;1272;62852;-68
2022/10/24 20:58:12;;;;;;;21.40;11.40;;;;;;;10.58;86.09;101183.11;105501;1267;59080;-69
2022/10/24 21:00:41;;;;;;;16.60;10.80;;;;;;;10.61;85.87;101179.28;105542;1264;62350;-70
2022/10/24 21:03:13;;;;;;;16.40;9.70;;;;;;;10.66;86.37;101179.35;105378;1272;72379;-69
2022/10/24 21:05:41;;;;;;;16.00;9.60;;;;;;;10.66;86.55;101174.79;105466;1266;69984;-69
2022/10/24 21:08:10;;;;;;;18.50;10.80;;;;;;;10.66;86.61;101173.23;105462;1272;63313;-70
2022/10/24 21:10:39;;;;;;;15.80;10.30;;;;;;;10.62;86.82;101158.89;105493;1267;61117;-70
2022/10/24 21:13:07;;;;;;;15.60;9.70;;;;;;;10.69;86.51;101164.66;105444;1270;61655;-67
2022/10/24 21:15:36;;;;;;;17.10;9.70;;;;;;;10.71;86.12;101161.92;105492;1268;62171;-67
2022/10/24 21:18:05;;;;;;;14.30;9.00;;;;;;;10.72;86.08;101159.05;105444;1263;72395;-67
2022/10/24 21:20:35;;;;;;;21.90;12.80;;;;;;;10.73;85.76;101152.73;105582;1270;69933;-66
2022/10/24 21:23:03;;;;;;;19.60;11.10;;;;;;;10.73;86.12;101154.66;105472;1270;65426;-69
2022/10/24 21:25:32;;;;;;;21.20;13.00;;;;;;;10.73;86.06;101160.22;105482;1270;59181;-69
2022/10/24 21:28:01;;;;;;;22.90;14.10;;;;;;;10.73;85.98;101161.44;105435;1270;59173;-68
2022/10/24 21:30:30;;;;;;;20.10;12.20;;;;;;;10.74;86.42;101162.58;105453;1266;72252;-69
2022/10/24 21:32:59;;;;;;;22.70;13.70;;;;;;;10.75;86.14;101159.77;105298;1261;60935;-68
2022/10/24 21:35:28;;;;;;;18.50;11.10;;;;;;;10.77;86.39;101158.37;105317;1275;70159;-68
2022/10/24 21:37:56;;;;;;;16.30;9.90;;;;;;;10.77;86.59;101156.11;105346;1270;73857;-67
2022/10/24 21:40:25;;;;;;;17.10;11.20;;;;;;;10.77;86.83;101159.28;105445;1267;59090;-67
2022/10/24 21:42:54;;;;;;;25.40;14.40;;;;;;;10.77;86.83;101159.26;105385;1273;60729;-69
2022/10/24 21:45:22;;;;;;;21.50;12.40;;;;;;;10.77;86.92;101159.42;105415;1270;61986;-68
2022/10/24 21:47:51;;;;;;;24.70;14.90;;;;;;;10.77;86.73;101159.76;105413;1265;61902;-68
2022/10/24 21:50:20;;;;;;;22.50;11.70;;;;;;;10.77;86.92;101160.12;105384;1274;71030;-69
2022/10/24 21:52:49;;;;;;;27.00;14.50;;;;;;;10.76;87.41;101158.83;105244;1270;74434;-69
2022/10/24 21:55:17;;;;;;;22.30;12.80;;;;;;;10.74;87.25;101161.70;105298;1265;62718;-69
2022/10/24 21:57:46;;;;;;;24.10;13.70;;;;;;;10.75;87.70;101157.33;105308;1258;58589;-68
2022/10/24 22:00:15;;;;;;;21.60;11.90;;;;;;;10.77;87.70;101157.35;105353;1260;73345;-67
2022/10/24 22:02:44;;;;;;;31.60;16.80;;;;;;;10.77;86.80;101159.42;105457;1267;72648;-69
2022/10/24 22:05:14;;;;;;;28.50;15.70;;;;;;;10.78;86.65;101160.79;105470;1264;68704;-66
2022/10/24 22:07:42;;;;;;;23.00;12.10;;;;;;;10.78;87.21;101164.74;105477;1265;74567;-66
2022/10/24 22:10:16;;;;;;;27.00;15.70;;;;;;;10.78;87.33;101167.73;105483;1273;62784;-67
2022/10/24 22:12:45;;;;;;;27.20;15.20;;;;;;;10.78;87.70;101162.84;105632;1254;59068;-67
2022/10/24 22:15:14;;;;;;;23.30;14.50;;;;;;;10.77;87.97;101162.89;105689;1264;72303;-69
2022/10/24 22:17:42;;;;;;;26.90;15.00;;;;;;;10.76;87.18;101162.08;105601;1260;72337;-68
2022/10/24 22:20:11;;;;;;;26.60;14.20;;;;;;;10.74;87.84;101169.54;105390;1275;70426;-69
2022/10/24 22:22:40;;;;;;;23.50;14.80;;;;;;;10.71;87.10;101173.77;105486;1260;64092;-71
2022/10/24 22:25:09;;;;;;;26.70;15.70;;;;;;;10.66;88.05;101176.38;105496;1262;57956;-69
2022/10/24 22:27:40;;;;;;;26.40;15.10;;;;;;;10.62;88.03;101172.10;105496;1274;60736;-68
2022/10/24 22:30:09;;;;;;;26.30;14.50;;;;;;;10.61;88.79;101164.14;105490;1260;72832;-69
2022/10/24 22:32:38;;;;;;;21.90;13.70;;;;;;;10.62;89.06;101167.39;105621;1260;70573;-66
2022/10/24 22:35:09;;;;;;;34.40;20.90;;;;;;;10.62;88.93;101164.77;105581;1260;59847;-69
2022/10/24 22:37:38;;;;;;;23.90;14.50;;;;;;;10.61;88.70;101163.44;105558;1261;63175;-69
2022/10/24 22:40:28;;;;;;;21.80;13.40;;;;;;;10.62;88.72;101165.14;105519;1268;57959;-67
2022/10/24 22:42:57;;;;;;;22.30;12.60;;;;;;;10.58;88.93;101156.83;105535;1263;58941;-68
2022/10/24 22:45:27;;;;;;;22.20;14.10;;;;;;;10.55;89.39;101151.61;105626;1266;61328;-69
2022/10/24 22:48:10;;;;;;;26.90;16.20;;;;;;;10.53;89.76;101147.96;105540;1265;61021;-66
2022/10/24 22:50:42;;;;;;;23.10;14.00;;;;;;;10.50;90.23;101149.70;105582;1264;69402;-69
2022/10/24 22:53:14;;;;;;;23.40;14.00;;;;;;;10.47;89.88;101153.71;105582;1273;74911;-65
2022/10/24 22:55:55;;;;;;;25.00;14.50;;;;;;;10.45;89.41;101153.53;105575;1266;58017;-66
2022/10/24 22:58:24;;;;;;;27.70;15.10;;;;;;;10.41;89.97;101151.66;105519;1265;60810;-67
2022/10/24 23:01:03;;;;;;;24.10;13.20;;;;;;;10.39;90.53;101146.44;105494;1267;62461;-67
2022/10/24 23:04:01;;;;;;;23.20;14.40;;;;;;;10.37;90.64;101143.05;105546;1261;71382;-66
2022/10/24 23:06:44;;;;;;;22.80;13.60;;;;;;;10.36;90.48;101137.21;105488;1260;60692;-67
2022/10/24 23:09:13;;;;;;;;;;;;;;;10.34;89.47;101134.03;105524;1265;62460;-68
2022/10/24 23:11:42;;;;;;;22.40;12.00;;;;;;;10.32;88.38;101139.38;105411;1262;62437;-67
2022/10/24 23:14:13;;;;;;;23.10;12.00;;;;;;;10.29;87.68;101141.98;105544;1269;60747;-66
2022/10/24 23:16:58;;;;;;;21.40;10.50;;;;;;;10.25;89.67;101143.85;105520;1270;61985;-65
2022/10/24 23:19:30;;;;;;;15.60;9.60;;;;;;;10.18;90.23;101146.88;105514;1273;61883;-65
2022/10/24 23:22:26;;;;;;;16.10;9.90;;;;;;;10.16;87.42;101141.27;105461;1270;69820;-66
2022/10/24 23:25:00;;;;;;;15.60;10.00;;;;;;;10.12;90.18;101140.96;105468;1267;74230;-68
2022/10/24 23:27:41;;;;;;;25.30;13.90;;;;;;;10.13;90.53;101134.66;105474;1260;63123;-68
2022/10/24 23:30:21;;;;;;;20.00;11.40;;;;;;;10.14;89.97;101129.89;105429;1270;60625;-70
2022/10/24 23:32:50;;;;;;;20.20;11.20;;;;;;;10.25;91.19;101126.44;105366;1263;75060;-68
2022/10/24 23:35:21;;;;;;;16.80;11.10;;;;;;;10.30;90.19;101122.63;105450;1259;71767;-66
2022/10/24 23:37:51;;;;;;;21.30;11.00;;;;;;;10.33;89.89;101123.08;105537;1260;59756;-68
2022/10/24 23:40:35;;;;;;;16.30;11.40;;;;;;;10.39;89.98;101118.95;105383;1269;62407;-67
2022/10/24 23:43:04;;;;;;;19.80;10.60;;;;;;;10.45;90.15;101118.67;105521;1270;63811;-68
2022/10/24 23:45:49;;;;;;;18.90;11.50;;;;;;;10.51;89.60;101118.79;105426;1260;58846;-68
2022/10/24 23:48:54;;;;;;;19.00;10.40;;;;;;;10.59;89.07;101121.06;105510;1270;63258;-67
2022/10/24 23:51:54;;;;;;;17.20;9.90;;;;;;;10.67;88.69;101114.83;105515;1268;72095;-67
2022/10/24 23:54:31;;;;;;;15.30;9.60;;;;;;;10.70;88.17;101109.73;105539;1262;71301;-66
2022/10/24 23:57:00;;;;;;;16.70;9.80;;;;;;;10.74;88.13;101113.48;105453;1267;73639;-66
2022/10/24 23:59:29;;;;;;;14.70;10.00;;;;;;;10.78;88.24;101113.04;105564;1266;62554;-66
